Time;durP1;ratioP1;P1;durP2;ratioP2;P2;SDS_P1;SDS_P2;PMS_P1;PMS_P2;Temp;Humidity;BMP_temperature;BMP_pressure;BME280_temperature;BME280_humidity;BME280_pressure;Samples;Min_cycle;Max_cycle;Signal;HPM_P1;HPM_P2
2022/03/10 00:01:15;;;;;;;19.57;10.10;;;1.80;99.90;;;;;;5021025;28;20198;-68
2022/03/10 00:03:48;;;;;;;21.93;10.90;;;1.80;99.90;;;;;;5026028;28;20203;-68
2022/03/10 00:06:17;;;;;;;20.43;10.60;;;1.70;99.90;;;;;;5021977;28;20461;-68
2022/03/10 00:08:44;;;;;;;21.80;10.37;;;1.80;99.90;;;;;;5021246;28;20208;-69
2022/03/10 00:11:11;;;;;;;23.63;10.27;;;1.80;99.90;;;;;;5025717;28;20195;-67
2022/03/10 00:13:39;;;;;;;19.27;11.00;;;1.70;99.90;;;;;;5021502;28;20250;-67
2022/03/10 00:16:06;;;;;;;21.40;11.17;;;1.70;99.90;;;;;;5028348;28;20211;-67
2022/03/10 00:18:33;;;;;;;23.47;11.40;;;1.70;99.90;;;;;;5019661;28;20211;-66
2022/03/10 00:21:00;;;;;;;21.70;10.97;;;1.70;99.90;;;;;;5026426;28;20201;-68
2022/03/10 00:23:26;;;;;;;23.90;11.20;;;1.60;99.90;;;;;;5018779;28;20211;-67
2022/03/10 00:25:54;;;;;;;21.40;10.70;;;1.70;99.90;;;;;;5028426;28;20222;-68
2022/03/10 00:28:21;;;;;;;22.30;10.93;;;1.60;99.90;;;;;;5015518;28;20207;-67
2022/03/10 00:30:48;;;;;;;23.17;10.50;;;1.50;99.90;;;;;;5021056;28;20215;-69
2022/03/10 00:33:15;;;;;;;21.27;11.03;;;1.50;99.90;;;;;;5014372;28;20283;-69
2022/03/10 00:35:42;;;;;;;24.40;11.07;;;1.50;99.90;;;;;;5019460;28;20219;-69
2022/03/10 00:38:08;;;;;;;21.77;11.03;;;1.50;99.90;;;;;;5023579;28;20193;-69
2022/03/10 00:40:35;;;;;;;20.93;11.17;;;1.50;99.90;;;;;;5023567;28;20196;-68
2022/03/10 00:43:02;;;;;;;21.00;11.17;;;1.40;99.90;;;;;;5016122;28;20189;-68
2022/03/10 00:45:28;;;;;;;22.73;11.10;;;1.50;99.90;;;;;;5027441;28;20481;-68
2022/03/10 00:47:55;;;;;;;23.83;11.50;;;1.40;99.90;;;;;;5017654;28;20192;-68
2022/03/10 00:50:23;;;;;;;22.33;11.63;;;1.50;99.90;;;;;;5023480;28;20199;-69
2022/03/10 00:52:50;;;;;;;25.50;11.37;;;1.50;99.90;;;;;;5020779;28;20192;-69
2022/03/10 00:55:18;;;;;;;23.80;11.77;;;1.50;99.90;;;;;;5037647;28;20215;-69
2022/03/10 00:57:47;;;;;;;21.77;11.13;;;1.30;99.90;;;;;;5021532;28;20219;-69
2022/03/10 01:00:14;;;;;;;23.90;12.10;;;1.20;99.90;;;;;;5024368;28;20214;-70
2022/03/10 01:02:42;;;;;;;25.20;11.47;;;1.20;99.90;;;;;;5020131;28;20204;-69
2022/03/10 01:05:12;;;;;;;23.70;12.17;;;1.20;99.90;;;;;;5027592;28;20310;-69
2022/03/10 01:07:39;;;;;;;23.23;11.57;;;1.20;99.90;;;;;;5021244;28;20196;-67
2022/03/10 01:10:07;;;;;;;22.43;10.97;;;1.20;99.90;;;;;;5017768;28;20193;-67
2022/03/10 01:12:35;;;;;;;23.20;11.40;;;1.00;99.90;;;;;;5020450;28;20211;-67
2022/03/10 01:15:02;;;;;;;24.43;11.37;;;0.90;99.90;;;;;;5020328;28;20242;-67
2022/03/10 01:17:29;;;;;;;27.13;11.10;;;0.90;99.90;;;;;;5021356;28;20196;-67
2022/03/10 01:19:56;;;;;;;22.43;10.90;;;1.00;99.90;;;;;;5028436;28;20188;-67
2022/03/10 01:22:22;;;;;;;25.00;10.77;;;0.90;99.90;;;;;;5016621;28;20632;-67
2022/03/10 01:24:49;;;;;;;21.07;10.47;;;0.80;99.90;;;;;;5020651;28;20686;-67
2022/03/10 01:27:16;;;;;;;19.90;10.87;;;0.70;99.90;;;;;;5018446;28;20287;-67
2022/03/10 01:29:42;;;;;;;21.23;9.97;;;0.60;99.90;;;;;;5022288;28;20203;-67
2022/03/10 01:32:11;;;;;;;20.30;10.17;;;0.50;99.90;;;;;;5018760;28;20192;-67
2022/03/10 01:34:38;;;;;;;19.30;10.43;;;0.50;99.90;;;;;;5017211;28;20223;-67
2022/03/10 01:37:05;;;;;;;22.40;10.23;;;0.50;99.90;;;;;;5015806;28;20212;-67
2022/03/10 01:39:33;;;;;;;22.13;11.17;;;0.60;99.90;;;;;;5021132;28;20196;-67
2022/03/10 01:42:00;;;;;;;23.13;10.30;;;0.50;99.90;;;;;;5015139;28;20207;-67
2022/03/10 01:44:27;;;;;;;22.17;10.80;;;0.50;99.90;;;;;;5015628;28;20200;-67
2022/03/10 01:46:54;;;;;;;21.53;10.43;;;0.50;99.90;;;;;;5018800;28;20615;-68
2022/03/10 01:49:21;;;;;;;20.53;10.57;;;0.50;99.90;;;;;;5022533;28;20212;-70
2022/03/10 01:51:51;;;;;;;20.77;11.20;;;0.40;99.90;;;;;;5015012;28;20278;-68
2022/03/10 01:54:18;;;;;;;20.20;9.77;;;0.40;99.90;;;;;;5009530;28;20215;-68
2022/03/10 01:56:45;;;;;;;20.67;10.07;;;0.50;99.90;;;;;;5015328;28;20227;-68
2022/03/10 01:59:12;;;;;;;22.47;10.37;;;0.30;99.90;;;;;;5020513;28;20575;-69
2022/03/10 02:01:39;;;;;;;21.03;10.63;;;0.20;99.90;;;;;;5015461;28;20192;-69
2022/03/10 02:04:06;;;;;;;25.00;11.53;;;0.20;99.90;;;;;;5022487;28;20678;-69
2022/03/10 02:06:33;;;;;;;22.60;11.63;;;0.20;99.90;;;;;;5025528;28;20223;-68
2022/03/10 02:11:45;;;;;;;24.20;10.37;;;0.50;99.90;;;;;;5021417;28;20204;-69
2022/03/10 02:19:43;;;;;;;21.93;10.77;;;0.30;99.90;;;;;;5018997;28;20191;-68
2022/03/10 02:22:12;;;;;;;21.13;10.87;;;0.40;99.90;;;;;;5023828;28;20482;-69
2022/03/10 02:24:40;;;;;;;22.10;10.87;;;0.40;99.90;;;;;;5017295;28;20204;-68
2022/03/10 02:27:19;;;;;;;21.50;10.60;;;0.40;99.90;;;;;;5016879;28;20204;-68
2022/03/10 02:29:48;;;;;;;20.73;10.97;;;0.50;99.90;;;;;;5019499;28;20207;-69
2022/03/10 02:32:17;;;;;;;17.93;10.03;;;0.50;99.90;;;;;;5020842;28;20215;-68
2022/03/10 02:34:45;;;;;;;19.23;9.83;;;0.40;99.90;;;;;;5017298;28;20566;-68
2022/03/10 02:37:12;;;;;;;24.77;10.80;;;0.20;99.90;;;;;;5013182;28;20196;-68
2022/03/10 02:39:40;;;;;;;21.83;10.50;;;0.00;99.90;;;;;;5019802;28;20191;-67
2022/03/10 02:42:07;;;;;;;20.27;9.80;;;-0.10;99.90;;;;;;5020302;28;20557;-67
2022/03/10 02:44:39;;;;;;;24.53;10.07;;;-0.10;99.90;;;;;;5026231;28;20460;-66
2022/03/10 02:47:06;;;;;;;20.83;10.13;;;-0.20;99.90;;;;;;5022298;28;20202;-67
2022/03/10 02:49:32;;;;;;;21.63;10.13;;;-0.20;99.90;;;;;;5019148;28;20465;-67
2022/03/10 02:52:00;;;;;;;25.03;11.33;;;-0.20;99.90;;;;;;5017653;28;20458;-67
2022/03/10 02:54:41;;;;;;;22.03;10.83;;;-0.30;99.90;;;;;;5018175;28;21069;-67
2022/03/10 02:57:08;;;;;;;22.07;10.40;;;-0.30;99.90;;;;;;5019732;28;20606;-66
2022/03/10 02:59:35;;;;;;;20.97;10.17;;;-0.10;99.90;;;;;;5017214;28;20196;-67
2022/03/10 03:02:02;;;;;;;24.07;11.43;;;-0.10;99.90;;;;;;5021313;28;20196;-66
2022/03/10 03:04:29;;;;;;;26.47;11.50;;;-0.10;99.90;;;;;;5021153;28;20247;-66
2022/03/10 03:06:56;;;;;;;23.10;10.50;;;-0.20;99.90;;;;;;5024275;28;20215;-66
2022/03/10 03:09:23;;;;;;;19.27;9.90;;;-0.20;99.90;;;;;;5025946;28;20450;-67
2022/03/10 03:11:50;;;;;;;22.70;11.47;;;-0.30;99.90;;;;;;5018664;28;20845;-67
2022/03/10 03:14:16;;;;;;;20.80;10.83;;;-0.30;99.90;;;;;;5016570;28;20216;-67
2022/03/10 03:16:44;;;;;;;19.47;10.00;;;-0.20;99.90;;;;;;5014990;28;20219;-67
2022/03/10 03:19:11;;;;;;;24.70;10.43;;;-0.20;99.90;;;;;;5024368;28;20492;-67
2022/03/10 03:21:37;;;;;;;22.63;11.23;;;-0.10;99.90;;;;;;5017644;28;20950;-67
2022/03/10 03:24:04;;;;;;;20.63;10.13;;;-0.10;99.90;;;;;;5026288;28;20210;-67
2022/03/10 03:26:31;;;;;;;20.73;10.27;;;-0.10;99.90;;;;;;5018015;28;20474;-67
2022/03/10 03:28:58;;;;;;;23.37;10.17;;;-0.30;99.90;;;;;;5024704;28;20485;-67
2022/03/10 03:31:24;;;;;;;22.17;9.93;;;-0.30;99.90;;;;;;5019259;28;20454;-69
2022/03/10 03:33:51;;;;;;;20.40;10.43;;;-0.40;99.90;;;;;;5027202;28;20455;-69
2022/03/10 03:36:18;;;;;;;22.37;10.63;;;-0.40;99.90;;;;;;5026906;28;20462;-69
2022/03/10 03:38:45;;;;;;;19.13;9.80;;;-0.30;99.90;;;;;;5024354;28;20462;-70
2022/03/10 03:41:11;;;;;;;23.33;11.60;;;-0.30;99.90;;;;;;5021052;28;20447;-69
2022/03/10 03:43:38;;;;;;;21.10;10.80;;;-0.30;99.90;;;;;;5026905;28;20449;-69
2022/03/10 03:46:07;;;;;;;20.07;10.87;;;-0.30;99.90;;;;;;5017761;28;20470;-69
2022/03/10 03:48:34;;;;;;;21.00;10.27;;;-0.40;99.90;;;;;;5018491;28;20461;-69
2022/03/10 03:51:01;;;;;;;23.10;10.50;;;-0.40;99.90;;;;;;5018092;28;20210;-69
2022/03/10 03:53:28;;;;;;;22.73;11.67;;;-0.40;99.90;;;;;;5019364;28;20454;-70
2022/03/10 03:55:54;;;;;;;22.03;11.10;;;-0.30;99.90;;;;;;5025726;28;20226;-69
2022/03/10 03:58:21;;;;;;;24.73;10.33;;;-0.20;99.90;;;;;;5017825;28;20291;-68
2022/03/10 04:00:48;;;;;;;22.57;11.63;;;-0.20;99.90;;;;;;5027072;28;20450;-69
2022/03/10 04:03:15;;;;;;;22.63;10.67;;;-0.10;99.90;;;;;;5021097;28;20208;-69
2022/03/10 04:05:42;;;;;;;22.40;11.20;;;-0.20;99.90;;;;;;5021931;28;20220;-69
2022/03/10 04:08:09;;;;;;;23.50;10.53;;;-0.30;99.90;;;;;;5024788;28;20203;-68
2022/03/10 04:10:36;;;;;;;23.90;9.93;;;-0.40;99.90;;;;;;5029687;28;20569;-68
2022/03/10 04:13:04;;;;;;;20.60;10.47;;;-0.40;99.90;;;;;;5023334;28;20870;-68
2022/03/10 04:15:31;;;;;;;21.97;11.27;;;-0.50;99.90;;;;;;5021265;28;20490;-69
2022/03/10 04:17:58;;;;;;;25.40;11.07;;;-0.60;99.90;;;;;;5023117;28;20464;-68
2022/03/10 04:20:24;;;;;;;20.10;10.00;;;-0.50;99.90;;;;;;5021099;28;20203;-68
2022/03/10 04:22:51;;;;;;;20.87;10.73;;;-0.50;99.90;;;;;;5022310;28;20942;-68
2022/03/10 04:25:18;;;;;;;23.87;11.43;;;-0.40;99.90;;;;;;5024880;28;20219;-69
2022/03/10 04:27:45;;;;;;;23.07;11.53;;;-0.50;99.90;;;;;;5028403;28;20458;-66
2022/03/10 04:30:12;;;;;;;23.83;11.07;;;-0.40;99.90;;;;;;5020883;28;20465;-67
2022/03/10 04:32:43;;;;;;;25.20;11.17;;;-0.40;99.90;;;;;;5018453;28;20206;-67
2022/03/10 04:35:13;;;;;;;21.97;10.70;;;-0.60;99.90;;;;;;5021931;28;20484;-67
2022/03/10 04:37:39;;;;;;;21.70;10.67;;;-0.40;99.90;;;;;;5020009;28;20575;-67
2022/03/10 04:40:07;;;;;;;23.30;10.33;;;-0.50;99.90;;;;;;5025794;28;20196;-67
2022/03/10 04:42:35;;;;;;;24.87;10.90;;;-0.80;99.90;;;;;;5019873;28;20200;-69
2022/03/10 04:45:03;;;;;;;23.60;10.90;;;-0.90;99.90;;;;;;5024471;28;20466;-69
2022/03/10 04:47:30;;;;;;;24.43;11.00;;;-0.80;99.90;;;;;;5024286;28;20199;-69
2022/03/10 04:49:57;;;;;;;21.47;11.13;;;-0.70;99.90;;;;;;5026523;28;20462;-69
2022/03/10 04:52:27;;;;;;;22.53;10.50;;;-0.70;99.90;;;;;;5016838;28;20481;-68
2022/03/10 04:54:54;;;;;;;20.80;10.47;;;-0.80;99.90;;;;;;5023280;28;20510;-69
2022/03/10 04:57:21;;;;;;;18.13;8.97;;;-0.90;99.90;;;;;;5020518;28;20223;-69
2022/03/10 04:59:48;;;;;;;21.27;11.33;;;-1.00;99.90;;;;;;5028050;28;20962;-68
2022/03/10 05:02:15;;;;;;;24.97;11.27;;;-0.90;99.90;;;;;;5020358;28;20800;-69
2022/03/10 05:04:42;;;;;;;25.80;11.40;;;-0.70;99.90;;;;;;5027512;28;20462;-69
2022/03/10 05:07:09;;;;;;;29.50;11.10;;;-0.60;99.90;;;;;;5022617;28;20450;-69
2022/03/10 05:09:36;;;;;;;26.43;11.00;;;-0.70;99.90;;;;;;5021722;28;20457;-67
2022/03/10 05:12:03;;;;;;;24.57;11.30;;;-0.60;99.90;;;;;;5023249;28;20446;-68
2022/03/10 05:14:32;;;;;;;20.73;11.07;;;-0.40;99.90;;;;;;5022923;28;20480;-67
2022/03/10 05:16:59;;;;;;;24.20;11.57;;;-0.50;99.90;;;;;;5026970;28;20760;-68
2022/03/10 05:19:26;;;;;;;22.17;11.20;;;-0.50;99.90;;;;;;5023034;28;20516;-67
2022/03/10 05:21:53;;;;;;;23.33;11.10;;;-0.50;99.90;;;;;;5022808;28;20450;-67
2022/03/10 05:24:20;;;;;;;23.77;11.00;;;-0.50;99.90;;;;;;5018931;28;20477;-67
2022/03/10 05:26:47;;;;;;;22.97;11.23;;;-0.40;99.90;;;;;;5016220;28;21023;-67
2022/03/10 05:29:14;;;;;;;26.40;11.50;;;-0.40;99.90;;;;;;5025672;28;20454;-67
2022/03/10 05:31:41;;;;;;;27.17;11.77;;;-0.50;99.90;;;;;;5024690;28;20447;-67
2022/03/10 05:34:08;;;;;;;24.83;12.13;;;-0.60;99.90;;;;;;5020551;28;20446;-67
2022/03/10 05:36:36;;;;;;;25.03;12.23;;;-0.60;99.90;;;;;;5020493;28;20486;-67
2022/03/10 05:39:04;;;;;;;24.23;11.00;;;-0.60;99.90;;;;;;5019061;28;20446;-67
2022/03/10 05:41:32;;;;;;;24.43;11.13;;;-0.70;99.90;;;;;;5021059;28;20454;-67
2022/03/10 05:43:59;;;;;;;25.83;12.73;;;-0.60;99.90;;;;;;5023318;28;20462;-67
2022/03/10 05:46:26;;;;;;;25.87;11.50;;;-0.50;99.90;;;;;;5025086;28;20820;-67
2022/03/10 05:48:54;;;;;;;27.67;11.83;;;-0.50;99.90;;;;;;5019747;28;21010;-67
2022/03/10 05:51:20;;;;;;;26.30;11.23;;;-0.50;99.90;;;;;;5024416;28;20441;-67
2022/03/10 05:53:50;;;;;;;19.93;10.07;;;-0.50;99.90;;;;;;5020117;28;20452;-67
2022/03/10 05:56:18;;;;;;;25.93;11.57;;;-0.60;99.90;;;;;;5016493;28;20832;-67
2022/03/10 05:58:45;;;;;;;28.60;12.03;;;-0.60;99.90;;;;;;5017340;28;20823;-67
2022/03/10 06:01:14;;;;;;;25.50;12.63;;;-0.50;99.90;;;;;;5019203;28;20932;-67
2022/03/10 06:03:42;;;;;;;26.80;11.80;;;-0.50;99.90;;;;;;5013115;28;20447;-67
2022/03/10 06:06:12;;;;;;;24.43;11.17;;;-0.50;99.90;;;;;;5007136;28;20475;-65
2022/03/10 06:08:39;;;;;;;25.33;11.53;;;-0.60;99.90;;;;;;5020960;28;20451;-65
2022/03/10 06:11:07;;;;;;;25.63;11.17;;;-0.70;99.90;;;;;;5023260;28;20450;-65
2022/03/10 06:13:34;;;;;;;27.63;12.13;;;-0.80;99.90;;;;;;5030749;28;20461;-65
2022/03/10 06:16:01;;;;;;;28.43;12.03;;;-0.80;99.90;;;;;;5018835;28;20549;-65
2022/03/10 06:18:28;;;;;;;23.80;11.57;;;-0.70;99.90;;;;;;5014922;28;20479;-67
2022/03/10 06:20:54;;;;;;;25.17;12.33;;;-0.60;99.90;;;;;;5012689;28;20481;-68
2022/03/10 06:23:21;;;;;;;27.07;12.87;;;-0.60;99.90;;;;;;5018169;28;20948;-67
2022/03/10 06:25:48;;;;;;;25.73;12.40;;;-0.60;99.90;;;;;;5011734;28;20479;-67
2022/03/10 06:28:15;;;;;;;26.67;12.43;;;-0.60;99.90;;;;;;5017062;28;20536;-68
2022/03/10 06:30:42;;;;;;;27.03;12.63;;;-0.50;99.90;;;;;;5027088;28;20461;-67
2022/03/10 06:33:10;;;;;;;27.40;12.43;;;-0.40;99.90;;;;;;5017023;28;20200;-67
2022/03/10 06:35:37;;;;;;;28.23;13.77;;;-0.20;99.90;;;;;;5020411;28;20243;-68
2022/03/10 06:38:04;;;;;;;31.70;14.83;;;-0.10;99.90;;;;;;5011850;28;20495;-67
2022/03/10 06:40:30;;;;;;;31.43;15.07;;;0.10;99.90;;;;;;5017317;28;20637;-66
2022/03/10 06:42:57;;;;;;;28.93;13.63;;;0.20;99.90;;;;;;5025056;28;20686;-66
2022/03/10 06:45:27;;;;;;;27.37;13.03;;;0.20;99.90;;;;;;5023777;28;20227;-68
2022/03/10 06:47:54;;;;;;;29.13;12.23;;;0.10;99.90;;;;;;5015182;28;20525;-69
2022/03/10 06:50:20;;;;;;;25.93;12.23;;;0.00;99.90;;;;;;5026116;28;20203;-67
2022/03/10 06:52:50;;;;;;;25.60;12.67;;;0.10;99.90;;;;;;5034808;28;20285;-68
2022/03/10 06:55:19;;;;;;;27.30;13.53;;;0.10;99.90;;;;;;5016935;28;20231;-67
2022/03/10 06:57:46;;;;;;;26.60;13.43;;;0.20;99.90;;;;;;5019778;28;20565;-66
2022/03/10 07:00:13;;;;;;;26.77;13.63;;;0.30;99.90;;;;;;5019663;28;20200;-67
2022/03/10 07:02:40;;;;;;;29.53;13.50;;;0.30;99.90;;;;;;5020107;28;20202;-67
2022/03/10 07:05:28;;;;;;;32.00;13.53;;;0.40;99.90;;;;;;5009738;28;20698;-68
2022/03/10 07:07:55;;;;;;;31.13;13.70;;;0.60;99.90;;;;;;4999746;28;20215;-69
2022/03/10 07:10:25;;;;;;;30.77;13.63;;;0.70;99.90;;;;;;5007380;28;20975;-66
2022/03/10 07:12:51;;;;;;;34.50;14.27;;;0.80;99.90;;;;;;5015423;28;20207;-67
2022/03/10 07:15:18;;;;;;;31.27;14.93;;;0.70;99.90;;;;;;5013947;28;20230;-64
2022/03/10 07:17:45;;;;;;;31.87;14.70;;;0.70;99.90;;;;;;5017264;28;20203;-65
2022/03/10 07:20:14;;;;;;;34.40;14.73;;;0.80;99.90;;;;;;5018849;28;20223;-64
2022/03/10 07:22:40;;;;;;;28.20;14.00;;;0.90;99.90;;;;;;5012608;28;20199;-64
2022/03/10 07:25:11;;;;;;;29.90;14.37;;;1.00;99.90;;;;;;5030657;28;20783;-64
2022/03/10 07:27:38;;;;;;;29.00;13.70;;;1.10;99.90;;;;;;5019204;28;20261;-64
2022/03/10 07:30:06;;;;;;;27.17;13.03;;;1.10;99.90;;;;;;5016483;28;20694;-64
2022/03/10 07:32:33;;;;;;;30.37;13.30;;;1.10;99.90;;;;;;5017816;28;20812;-65
2022/03/10 07:35:00;;;;;;;29.60;13.17;;;1.20;99.90;;;;;;5017594;28;20202;-65
2022/03/10 07:37:27;;;;;;;31.23;12.93;;;1.40;99.90;;;;;;5016219;28;20230;-65
2022/03/10 07:39:54;;;;;;;28.43;13.17;;;1.40;99.90;;;;;;5011848;28;20203;-65
2022/03/10 07:42:21;;;;;;;29.33;14.27;;;1.40;99.90;;;;;;5011261;28;20203;-65
2022/03/10 07:44:47;;;;;;;30.90;13.47;;;1.60;99.90;;;;;;5017613;28;20206;-65
2022/03/10 07:47:14;;;;;;;27.77;12.97;;;1.70;99.90;;;;;;5011039;28;20199;-64
2022/03/10 07:49:41;;;;;;;26.67;13.20;;;1.80;99.90;;;;;;5015950;28;20598;-65
2022/03/10 07:52:08;;;;;;;22.93;12.60;;;2.00;99.90;;;;;;5015127;28;20226;-64
2022/03/10 07:54:34;;;;;;;25.00;13.47;;;2.10;99.90;;;;;;5019317;28;20223;-64
2022/03/10 07:57:03;;;;;;;27.43;12.60;;;2.30;99.90;;;;;;5017971;28;20283;-63
2022/03/10 07:59:29;;;;;;;28.17;13.27;;;2.40;99.90;;;;;;5018245;28;20294;-64
2022/03/10 08:01:56;;;;;;;24.77;12.80;;;2.30;99.90;;;;;;5018136;28;20229;-64
2022/03/10 08:04:23;;;;;;;23.07;12.87;;;2.30;99.90;;;;;;5020709;28;20276;-64
2022/03/10 08:06:50;;;;;;;27.40;12.83;;;2.50;99.90;;;;;;5018098;28;20219;-64
2022/03/10 08:09:17;;;;;;;28.10;13.23;;;2.70;99.90;;;;;;5019089;28;20203;-64
2022/03/10 08:11:44;;;;;;;24.90;11.43;;;2.90;99.90;;;;;;5013105;28;20200;-63
2022/03/10 08:14:10;;;;;;;24.27;12.57;;;3.10;99.90;;;;;;5017940;28;20196;-65
2022/03/10 08:16:40;;;;;;;24.93;11.33;;;3.20;99.90;;;;;;5019806;28;20222;-66
2022/03/10 08:19:10;;;;;;;26.73;11.57;;;3.10;99.90;;;;;;5015895;28;20695;-66
2022/03/10 08:21:36;;;;;;;23.77;12.30;;;3.30;99.90;;;;;;5021058;28;20205;-66
2022/03/10 08:24:04;;;;;;;24.17;12.13;;;3.30;99.90;;;;;;5021363;28;20205;-66
2022/03/10 08:26:31;;;;;;;27.80;12.43;;;3.50;99.90;;;;;;5020692;28;20236;-66
2022/03/10 08:28:58;;;;;;;26.13;12.33;;;3.90;99.90;;;;;;5022651;28;20206;-66
2022/03/10 08:31:25;;;;;;;26.43;12.57;;;4.00;99.90;;;;;;5019825;28;20217;-71
2022/03/10 08:33:52;;;;;;;26.90;14.17;;;4.00;99.90;;;;;;5019379;28;20721;-68
2022/03/10 08:36:19;;;;;;;27.10;13.37;;;4.20;99.90;;;;;;5020019;28;20600;-69
2022/03/10 08:38:45;;;;;;;30.83;13.83;;;4.40;99.90;;;;;;5021335;28;20199;-71
2022/03/10 08:41:12;;;;;;;31.47;13.53;;;4.70;99.90;;;;;;5022675;28;20196;-69
2022/03/10 08:43:39;;;;;;;25.47;12.27;;;4.80;99.90;;;;;;5021441;28;20990;-68
2022/03/10 08:46:11;;;;;;;23.70;12.50;;;5.00;99.90;;;;;;5021737;28;20597;-70
2022/03/10 08:48:40;;;;;;;25.63;12.93;;;5.30;99.90;;;;;;5020028;28;20560;-71
2022/03/10 08:51:07;;;;;;;24.43;12.40;;;5.50;99.90;;;;;;5021629;28;21097;-68
2022/03/10 08:53:35;;;;;;;32.23;13.90;;;5.70;99.90;;;;;;5020188;28;21207;-72
2022/03/10 08:56:04;;;;;;;26.87;13.13;;;6.00;99.90;;;;;;5020630;28;20252;-69
2022/03/10 08:58:30;;;;;;;27.20;13.03;;;6.20;99.90;;;;;;5022121;28;20662;-71
2022/03/10 09:00:57;;;;;;;31.50;14.53;;;6.40;99.90;;;;;;5020540;28;20627;-68
2022/03/10 09:03:44;;;;;;;27.67;14.20;;;6.50;99.90;;;;;;5021156;28;20681;-70
2022/03/10 09:06:12;;;;;;;26.57;13.57;;;6.70;99.90;;;;;;5020007;28;20219;-69
2022/03/10 09:08:39;;;;;;;26.17;11.77;;;7.10;99.90;;;;;;5018699;28;20668;-69
2022/03/10 09:11:07;;;;;;;32.43;12.43;;;7.40;99.90;;;;;;5021196;28;20232;-69
2022/03/10 09:13:33;;;;;;;26.37;11.80;;;7.80;99.90;;;;;;5021039;28;20191;-72
2022/03/10 09:16:00;;;;;;;16.90;9.13;;;8.20;99.90;;;;;;5021587;28;20211;-70
2022/03/10 09:18:27;;;;;;;18.10;10.00;;;8.50;99.90;;;;;;5019983;28;20668;-68
2022/03/10 09:20:54;;;;;;;18.90;9.70;;;8.80;99.90;;;;;;5020716;28;20209;-72
2022/03/10 09:23:21;;;;;;;21.27;10.13;;;9.10;99.90;;;;;;5019725;28;20200;-69
2022/03/10 09:25:48;;;;;;;17.33;9.50;;;9.20;99.90;;;;;;5021427;28;20222;-69
2022/03/10 09:28:14;;;;;;;18.37;9.60;;;9.50;99.90;;;;;;5020294;28;20453;-68
2022/03/10 09:30:42;;;;;;;17.00;9.23;;;9.70;99.90;;;;;;5019017;28;20212;-72
2022/03/10 09:33:08;;;;;;;17.17;9.40;;;9.90;99.90;;;;;;5018060;28;20214;-69
2022/03/10 09:35:35;;;;;;;18.30;9.07;;;9.90;99.90;;;;;;5020830;28;20239;-73
2022/03/10 09:38:02;;;;;;;22.03;9.50;;;10.00;99.90;;;;;;5015692;28;20196;-70
2022/03/10 09:40:29;;;;;;;18.13;9.80;;;10.20;99.90;;;;;;5020853;28;20220;-67
2022/03/10 09:42:56;;;;;;;19.33;9.80;;;10.20;99.90;;;;;;5016820;28;20230;-72
2022/03/10 09:45:23;;;;;;;19.47;9.17;;;10.40;99.90;;;;;;5014879;28;20234;-68
2022/03/10 09:47:49;;;;;;;21.97;9.73;;;10.50;99.90;;;;;;5018118;28;20559;-73
2022/03/10 09:50:18;;;;;;;20.83;9.63;;;10.60;99.90;;;;;;5017762;28;20207;-70
2022/03/10 09:52:46;;;;;;;20.23;10.30;;;10.70;99.90;;;;;;5018422;28;20294;-68
2022/03/10 09:55:17;;;;;;;16.03;9.30;;;10.80;99.90;;;;;;5021475;28;20223;-67
2022/03/10 09:57:46;;;;;;;15.70;9.00;;;10.90;99.90;;;;;;5012207;28;20239;-68
2022/03/10 10:00:16;;;;;;;17.87;9.93;;;11.00;99.90;;;;;;5015970;28;20229;-67
2022/03/10 10:02:44;;;;;;;19.97;10.40;;;11.10;99.90;;;;;;5019022;28;20310;-67
2022/03/10 10:05:31;;;;;;;22.77;10.57;;;11.20;99.90;;;;;;5017681;28;20218;-70
2022/03/10 10:08:04;;;;;;;19.33;9.93;;;11.30;99.90;;;;;;5019481;28;20290;-70
2022/03/10 10:10:32;;;;;;;17.47;10.07;;;11.40;99.90;;;;;;5018698;28;20237;-67
2022/03/10 10:13:08;;;;;;;20.77;10.33;;;11.50;99.90;;;;;;5019898;28;20660;-65
2022/03/10 10:15:37;;;;;;;21.67;10.90;;;11.60;99.90;;;;;;5008784;28;20394;-65
2022/03/10 10:18:06;;;;;;;22.70;9.83;;;11.80;99.90;;;;;;5016573;28;20242;-66
2022/03/10 10:20:56;;;;;;;19.33;10.57;;;11.90;99.90;;;;;;5017066;28;20667;-65
2022/03/10 10:23:23;;;;;;;20.77;10.53;;;12.00;99.90;;;;;;5016605;28;20197;-65
2022/03/10 10:26:02;;;;;;;21.57;11.10;;;12.10;99.90;;;;;;5014789;28;20229;-68
2022/03/10 10:28:37;;;;;;;16.57;9.83;;;12.10;99.90;;;;;;5017209;28;20203;-73
2022/03/10 10:31:15;;;;;;;20.57;10.77;;;12.10;99.90;;;;;;5018543;28;20231;-70
2022/03/10 10:34:02;;;;;;;17.83;10.00;;;12.10;99.90;;;;;;5009715;28;20232;-69
2022/03/10 10:36:34;;;;;;;19.07;10.70;;;12.10;99.90;;;;;;5011401;28;20230;-71
2022/03/10 10:39:18;;;;;;;20.13;10.67;;;12.30;99.90;;;;;;5018765;28;20569;-70
2022/03/10 10:41:47;;;;;;;17.50;9.93;;;12.50;99.90;;;;;;5020270;28;20290;-70
2022/03/10 10:44:20;;;;;;;24.10;11.10;;;12.60;99.90;;;;;;5018000;28;20202;-69
2022/03/10 10:46:53;;;;;;;22.93;10.90;;;12.60;99.90;;;;;;5015340;28;20219;-72
2022/03/10 10:49:24;;;;;;;19.87;11.43;;;12.60;99.90;;;;;;5014850;28;20886;-68
2022/03/10 10:51:56;;;;;;;20.23;10.67;;;12.50;99.90;;;;;;5015869;28;20210;-68
2022/03/10 10:54:26;;;;;;;18.13;9.87;;;12.60;99.90;;;;;;5011364;28;20594;-72
2022/03/10 10:56:56;;;;;;;18.40;10.20;;;12.70;99.90;;;;;;5018903;28;20227;-67
2022/03/10 10:59:31;;;;;;;17.93;10.43;;;12.90;99.90;;;;;;5015705;28;20199;-73
2022/03/10 11:02:18;;;;;;;18.00;9.83;;;13.00;99.90;;;;;;5015795;28;20285;-74
2022/03/10 11:04:47;;;;;;;18.63;9.00;;;13.20;99.90;;;;;;5015987;28;20641;-75
2022/03/10 11:07:18;;;;;;;16.23;8.93;;;13.20;99.90;;;;;;5014569;28;20298;-74
2022/03/10 11:09:47;;;;;;;18.93;9.87;;;13.30;99.90;;;;;;5013843;28;20210;-75
2022/03/10 11:12:16;;;;;;;20.43;9.80;;;13.40;99.90;;;;;;5019573;28;20307;-71
2022/03/10 11:14:44;;;;;;;18.10;9.93;;;13.50;99.90;;;;;;5018284;28;20206;-74
2022/03/10 11:17:13;;;;;;;18.07;9.77;;;13.60;99.90;;;;;;5018052;28;20597;-68
2022/03/10 11:19:48;;;;;;;18.73;9.43;;;13.60;99.90;;;;;;5014853;28;20338;-72
2022/03/10 11:22:28;;;;;;;18.63;9.73;;;13.60;99.90;;;;;;5018145;28;20207;-69
2022/03/10 11:25:13;;;;;;;20.13;10.20;;;13.70;99.90;;;;;;5014253;28;20214;-70
2022/03/10 11:27:47;;;;;;;17.17;9.43;;;13.60;99.90;;;;;;5019690;28;20210;-71
2022/03/10 11:30:14;;;;;;;16.27;8.90;;;13.60;99.90;;;;;;5017160;28;20210;-69
2022/03/10 11:32:40;;;;;;;19.27;10.90;;;13.70;99.90;;;;;;5019696;28;20208;-68
2022/03/10 11:35:15;;;;;;;17.30;9.47;;;13.90;99.90;;;;;;5018361;28;20231;-68
2022/03/10 11:37:42;;;;;;;17.33;9.53;;;14.10;99.90;;;;;;5019268;28;21502;-68
2022/03/10 11:40:30;;;;;;;17.90;9.40;;;14.20;99.90;;;;;;5016449;28;20609;-66
2022/03/10 11:43:01;;;;;;;16.30;9.47;;;14.30;99.90;;;;;;5017213;28;20658;-66
2022/03/10 11:45:30;;;;;;;19.70;9.07;;;14.30;99.90;;;;;;5013366;28;20224;-68
2022/03/10 11:48:22;;;;;;;18.87;9.73;;;14.30;99.90;;;;;;5021923;28;20214;-66
2022/03/10 11:50:50;;;;;;;15.93;8.60;;;14.40;99.90;;;;;;5019583;28;20559;-70
2022/03/10 11:53:18;;;;;;;16.93;8.83;;;14.40;99.80;;;;;;5017996;28;20206;-68
2022/03/10 11:55:51;;;;;;;15.67;9.43;;;14.40;99.90;;;;;;5019948;28;20225;-69
2022/03/10 11:58:20;;;;;;;16.67;8.93;;;14.50;99.90;;;;;;5015590;28;20214;-70
2022/03/10 12:00:51;;;;;;;15.77;8.90;;;14.70;99.70;;;;;;5013996;28;20200;-70
2022/03/10 12:03:24;;;;;;;15.47;8.40;;;14.60;99.10;;;;;;5014119;28;20204;-71
2022/03/10 12:06:08;;;;;;;19.90;8.60;;;14.60;98.90;;;;;;5019549;28;20218;-70
2022/03/10 12:08:36;;;;;;;18.10;8.87;;;14.70;99.40;;;;;;5022137;28;20199;-71
2022/03/10 12:11:04;;;;;;;15.03;8.50;;;14.80;99.30;;;;;;5015781;28;20669;-71
2022/03/10 12:13:36;;;;;;;16.30;9.90;;;14.90;99.20;;;;;;5020326;28;20207;-70
2022/03/10 12:16:30;;;;;;;13.60;7.73;;;15.00;99.30;;;;;;5018930;28;20694;-71
2022/03/10 12:18:59;;;;;;;12.33;7.30;;;15.20;98.70;;;;;;5023131;28;20210;-71
2022/03/10 12:21:27;;;;;;;13.63;7.80;;;15.30;98.30;;;;;;5018843;28;20207;-69
2022/03/10 12:23:56;;;;;;;14.30;8.07;;;15.20;98.00;;;;;;5017722;28;20662;-69
2022/03/10 12:26:30;;;;;;;17.87;8.50;;;15.10;98.10;;;;;;5018336;28;20223;-73
2022/03/10 12:29:01;;;;;;;12.80;6.80;;;15.20;98.40;;;;;;5022104;28;20199;-72
2022/03/10 12:31:32;;;;;;;11.37;6.53;;;15.30;98.10;;;;;;5020904;28;20207;-69
2022/03/10 12:34:06;;;;;;;12.20;7.07;;;15.40;97.30;;;;;;5015146;28;21187;-70
2022/03/10 12:36:38;;;;;;;16.03;5.90;;;15.50;97.60;;;;;;5021107;28;20238;-70
2022/03/10 12:39:10;;;;;;;10.67;5.63;;;15.60;96.70;;;;;;5020133;28;20790;-68
2022/03/10 12:41:39;;;;;;;9.23;5.30;;;15.80;96.80;;;;;;5023868;28;20211;-68
2022/03/10 12:44:08;;;;;;;10.47;5.53;;;15.90;96.20;;;;;;5016342;28;20200;-67
2022/03/10 12:46:43;;;;;;;11.27;5.53;;;16.00;96.30;;;;;;5016716;28;20559;-68
2022/03/10 12:49:22;;;;;;;10.30;5.90;;;16.10;95.80;;;;;;5016670;28;20681;-68